sensor_id;sensor_type;location;lat;lon;timestamp;pressure;altitude;pressure_sealevel;temperature;humidity
22047;BME280;11187;49.412;20.956;2023-01-27T00:01:00;94975.00;;;-2.26;100.00
22047;BME280;11187;49.412;20.956;2023-01-27T00:03:34;94972.44;;;-2.29;100.00
22047;BME280;11187;49.412;20.956;2023-01-27T00:06:21;94976.56;;;-2.29;100.00
22047;BME280;11187;49.412;20.956;2023-01-27T00:08:54;94976.53;;;-2.31;100.00
22047;BME280;11187;49.412;20.956;2023-01-27T00:11:41;94972.38;;;-2.31;100.00
22047;BME280;11187;49.412;20.956;2023-01-27T00:14:32;94974.81;;;-2.32;100.00
22047;BME280;11187;49.412;20.956;2023-01-27T00:17:19;94967.34;;;-2.31;100.00
22047;BME280;11187;49.412;20.956;2023-01-27T00:20:13;94970.72;;;-2.30;100.00
22047;BME280;11187;49.412;20.956;2023-01-27T00:26:19;94973.19;;;-2.32;100.00
22047;BME280;11187;49.412;20.956;2023-01-27T00:28:52;94975.59;;;-2.35;100.00
22047;BME280;11187;49.412;20.956;2023-01-27T00:31:39;94973.94;;;-2.34;100.00
22047;BME280;11187;49.412;20.956;2023-01-27T00:34:30;94973.06;;;-2.36;100.00
22047;BME280;11187;49.412;20.956;2023-01-27T00:37:18;94971.34;;;-2.37;100.00
22047;BME280;11187;49.412;20.956;2023-01-27T00:39:51;94973.81;;;-2.39;100.00
22047;BME280;11187;49.412;20.956;2023-01-27T00:42:38;94977.97;;;-2.39;100.00
22047;BME280;11187;49.412;20.956;2023-01-27T00:45:11;94973.72;;;-2.42;100.00
22047;BME280;11187;49.412;20.956;2023-01-27T00:48:16;94971.97;;;-2.44;100.00
22047;BME280;11187;49.412;20.956;2023-01-27T00:50:49;94976.16;;;-2.45;100.00
22047;BME280;11187;49.412;20.956;2023-01-27T00:53:36;94981.97;;;-2.46;100.00
22047;BME280;11187;49.412;20.956;2023-01-27T00:56:09;94976.03;;;-2.48;100.00
22047;BME280;11187;49.412;20.956;2023-01-27T00:58:57;94968.38;;;-2.54;100.00
22047;BME280;11187;49.412;20.956;2023-01-27T01:01:31;94972.47;;;-2.56;100.00
22047;BME280;11187;49.412;20.956;2023-01-27T01:04:25;94970.75;;;-2.59;100.00
22047;BME280;11187;49.412;20.956;2023-01-27T01:07:19;94960.59;;;-2.62;100.00
22047;BME280;11187;49.412;20.956;2023-01-27T01:10:13;94960.59;;;-2.62;100.00
22047;BME280;11187;49.412;20.956;2023-01-27T01:12:46;94956.38;;;-2.64;100.00
22047;BME280;11187;49.412;20.956;2023-01-27T01:15:40;94952.13;;;-2.67;100.00
22047;BME280;11187;49.412;20.956;2023-01-27T01:18:14;94953.66;;;-2.72;100.00
22047;BME280;11187;49.412;20.956;2023-01-27T01:21:01;94946.88;;;-2.75;100.00
22047;BME280;11187;49.412;20.956;2023-01-27T01:23:39;94953.50;;;-2.77;100.00
22047;BME280;11187;49.412;20.956;2023-01-27T01:26:26;94957.56;;;-2.80;100.00
22047;BME280;11187;49.412;20.956;2023-01-27T01:28:59;94954.16;;;-2.82;100.00
22047;BME280;11187;49.412;20.956;2023-01-27T01:31:49;94953.31;;;-2.83;100.00
22047;BME280;11187;49.412;20.956;2023-01-27T01:34:22;94947.47;;;-2.83;100.00
22047;BME280;11187;49.412;20.956;2023-01-27T01:37:09;94954.03;;;-2.87;100.00
22047;BME280;11187;49.412;20.956;2023-01-27T01:39:42;94943.91;;;-2.90;100.00
22047;BME280;11187;49.412;20.956;2023-01-27T01:42:58;94948.03;;;-2.92;100.00
22047;BME280;11187;49.412;20.956;2023-01-27T01:48:45;94950.31;;;-3.00;100.00
22047;BME280;11187;49.412;20.956;2023-01-27T01:51:47;94946.03;;;-3.02;100.00
22047;BME280;11187;49.412;20.956;2023-01-27T01:54:32;94948.50;;;-3.04;100.00
22047;BME280;11187;49.412;20.956;2023-01-27T01:57:22;94944.28;;;-3.06;100.00
22047;BME280;11187;49.412;20.956;2023-01-27T01:59:59;94944.28;;;-3.06;100.00
22047;BME280;11187;49.412;20.956;2023-01-27T02:02:48;94945.97;;;-3.05;100.00
22047;BME280;11187;49.412;20.956;2023-01-27T02:05:27;94944.28;;;-3.06;100.00
22047;BME280;11187;49.412;20.956;2023-01-27T02:08:23;94937.53;;;-3.07;100.00
22047;BME280;11187;49.412;20.956;2023-01-27T02:11:00;94938.34;;;-3.08;100.00
22047;BME280;11187;49.412;20.956;2023-01-27T02:13:47;94939.19;;;-3.08;100.00
22047;BME280;11187;49.412;20.956;2023-01-27T02:16:20;94931.63;;;-3.09;100.00
22047;BME280;11187;49.412;20.956;2023-01-27T02:19:24;94935.84;;;-3.08;100.00
22047;BME280;11187;49.412;20.956;2023-01-27T02:22:37;94942.47;;;-3.10;100.00
22047;BME280;11187;49.412;20.956;2023-01-27T02:28:30;94935.84;;;-3.08;100.00
22047;BME280;11187;49.412;20.956;2023-01-27T02:31:03;94935.84;;;-3.08;100.00
22047;BME280;11187;49.412;20.956;2023-01-27T02:33:52;94935.88;;;-3.07;100.00
22047;BME280;11187;49.412;20.956;2023-01-27T02:36:28;94933.44;;;-3.05;100.00
22047;BME280;11187;49.412;20.956;2023-01-27T02:39:19;94925.91;;;-3.05;100.00
22047;BME280;11187;49.412;20.956;2023-01-27T02:41:56;94929.28;;;-3.05;100.00
22047;BME280;11187;49.412;20.956;2023-01-27T02:44:51;94936.06;;;-3.01;100.00
22047;BME280;11187;49.412;20.956;2023-01-27T02:47:45;94929.53;;;-2.97;100.00
22047;BME280;11187;49.412;20.956;2023-01-27T02:50:18;94927.00;;;-2.97;100.00
22047;BME280;11187;49.412;20.956;2023-01-27T02:53:05;94942.88;;;-2.97;100.00
22047;BME280;11187;49.412;20.956;2023-01-27T02:55:39;94941.28;;;-2.95;100.00
22047;BME280;11187;49.412;20.956;2023-01-27T02:58:26;94938.00;;;-2.92;100.00
22047;BME280;11187;49.412;20.956;2023-01-27T03:00:59;94936.41;;;-2.90;100.00
22047;BME280;11187;49.412;20.956;2023-01-27T03:03:46;94937.25;;;-2.89;100.00
22047;BME280;11187;49.412;20.956;2023-01-27T03:06:19;94934.75;;;-2.89;100.00
22047;BME280;11187;49.412;20.956;2023-01-27T03:09:13;94930.69;;;-2.86;100.00
22047;BME280;11187;49.412;20.956;2023-01-27T03:11:46;94940.66;;;-2.87;100.00
22047;BME280;11187;49.412;20.956;2023-01-27T03:14:58;94944.75;;;-2.89;100.00
22047;BME280;11187;49.412;20.956;2023-01-27T03:18:10;94955.63;;;-2.89;100.00
22047;BME280;11187;49.412;20.956;2023-01-27T03:21:06;94946.50;;;-2.87;100.00
22047;BME280;11187;49.412;20.956;2023-01-27T03:24:00;94940.72;;;-2.86;100.00
22047;BME280;11187;49.412;20.956;2023-01-27T03:26:33;94949.16;;;-2.82;100.00
22047;BME280;11187;49.412;20.956;2023-01-27T03:29:20;94956.72;;;-2.81;100.00
22047;BME280;11187;49.412;20.956;2023-01-27T03:32:11;94955.88;;;-2.81;100.00
22047;BME280;11187;49.412;20.956;2023-01-27T03:35:05;94945.03;;;-2.80;100.00
22047;BME280;11187;49.412;20.956;2023-01-27T03:38:00;94942.63;;;-2.77;100.00
22047;BME280;11187;49.412;20.956;2023-01-27T03:40:52;94936.81;;;-2.76;100.00
22047;BME280;11187;49.412;20.956;2023-01-27T03:43:51;94930.13;;;-2.76;100.00
22047;BME280;11187;49.412;20.956;2023-01-27T03:46:50;94932.69;;;-2.74;100.00
22047;BME280;11187;49.412;20.956;2023-01-27T03:49:30;94931.84;;;-2.75;100.00
22047;BME280;11187;49.412;20.956;2023-01-27T03:52:10;94931.88;;;-2.73;100.00
22047;BME280;11187;49.412;20.956;2023-01-27T03:54:50;94938.63;;;-2.70;100.00
22047;BME280;11187;49.412;20.956;2023-01-27T03:57:30;94934.50;;;-2.70;100.00
22047;BME280;11187;49.412;20.956;2023-01-27T04:00:04;94934.53;;;-2.68;100.00
22047;BME280;11187;49.412;20.956;2023-01-27T04:02:58;94926.22;;;-2.67;100.00
22047;BME280;11187;49.412;20.956;2023-01-27T04:05:49;94922.03;;;-2.67;100.00
22047;BME280;11187;49.412;20.956;2023-01-27T04:08:55;94917.09;;;-2.65;100.00
22047;BME280;11187;49.412;20.956;2023-01-27T04:11:40;94912.91;;;-2.65;100.00
22047;BME280;11187;49.412;20.956;2023-01-27T04:14:46;94916.25;;;-2.64;100.00
22047;BME280;11187;49.412;20.956;2023-01-27T04:17:40;94918.69;;;-2.67;100.00
22047;BME280;11187;49.412;20.956;2023-01-27T04:20:14;94907.84;;;-2.68;100.00
22047;BME280;11187;49.412;20.956;2023-01-27T04:23:01;94911.97;;;-2.68;100.00
22047;BME280;11187;49.412;20.956;2023-01-27T04:25:34;94910.34;;;-2.68;100.00
22047;BME280;11187;49.412;20.956;2023-01-27T04:28:24;94907.84;;;-2.66;100.00
22047;BME280;11187;49.412;20.956;2023-01-27T04:31:10;94908.69;;;-2.66;100.00
22047;BME280;11187;49.412;20.956;2023-01-27T04:34:00;94902.06;;;-2.65;100.00
22047;BME280;11187;49.412;20.956;2023-01-27T04:36:33;94912.09;;;-2.64;100.00
22047;BME280;11187;49.412;20.956;2023-01-27T04:39:30;94907.09;;;-2.64;100.00
22047;BME280;11187;49.412;20.956;2023-01-27T04:42:03;94905.47;;;-2.63;100.00
22047;BME280;11187;49.412;20.956;2023-01-27T04:44:50;94904.69;;;-2.61;100.00
22047;BME280;11187;49.412;20.956;2023-01-27T04:47:23;94902.97;;;-2.62;100.00
22047;BME280;11187;49.412;20.956;2023-01-27T04:50:17;94902.19;;;-2.61;100.00
22047;BME280;11187;49.412;20.956;2023-01-27T04:53:11;94914.72;;;-2.59;100.00
22047;BME280;11187;49.412;20.956;2023-01-27T04:55:47;94919.75;;;-2.59;100.00
22047;BME280;11187;49.412;20.956;2023-01-27T04:58:41;94918.84;;;-2.61;100.00
22047;BME280;11187;49.412;20.956;2023-01-27T05:01:38;94920.56;;;-2.60;100.00
22047;BME280;11187;49.412;20.956;2023-01-27T05:04:33;94932.25;;;-2.61;100.00
22047;BME280;11187;49.412;20.956;2023-01-27T05:07:27;94928.84;;;-2.63;100.00
22047;BME280;11187;49.412;20.956;2023-01-27T05:10:21;94933.03;;;-2.63;100.00
22047;BME280;11187;49.412;20.956;2023-01-27T05:12:54;94929.69;;;-2.62;100.00
22047;BME280;11187;49.412;20.956;2023-01-27T05:15:41;94923.78;;;-2.64;100.00
22047;BME280;11187;49.412;20.956;2023-01-27T05:18:14;94928.00;;;-2.63;100.00
22047;BME280;11187;49.412;20.956;2023-01-27T05:21:12;94922.94;;;-2.65;100.00
22047;BME280;11187;49.412;20.956;2023-01-27T05:23:46;94922.09;;;-2.65;100.00
22047;BME280;11187;49.412;20.956;2023-01-27T05:26:33;94918.81;;;-2.63;100.00
22047;BME280;11187;49.412;20.956;2023-01-27T05:29:08;94910.34;;;-2.66;100.00
22047;BME280;11187;49.412;20.956;2023-01-27T05:32:02;94915.38;;;-2.66;100.00
22047;BME280;11187;49.412;20.956;2023-01-27T05:34:56;94924.59;;;-2.65;100.00
22047;BME280;11187;49.412;20.956;2023-01-27T05:37:29;94916.31;;;-2.63;100.00
22047;BME280;11187;49.412;20.956;2023-01-27T05:40:23;94918.84;;;-2.61;100.00
22047;BME280;11187;49.412;20.956;2023-01-27T05:42:56;94916.41;;;-2.60;100.00
22047;BME280;11187;49.412;20.956;2023-01-27T05:45:43;94913.00;;;-2.62;100.00
22047;BME280;11187;49.412;20.956;2023-01-27T05:48:16;94914.66;;;-2.62;100.00
22047;BME280;11187;49.412;20.956;2023-01-27T05:51:04;94907.19;;;-2.61;100.00
22047;BME280;11187;49.412;20.956;2023-01-27T05:53:41;94917.22;;;-2.61;100.00
22047;BME280;11187;49.412;20.956;2023-01-27T05:56:28;94916.41;;;-2.60;100.00
22047;BME280;11187;49.412;20.956;2023-01-27T05:59:01;94922.31;;;-2.58;100.00
22047;BME280;11187;49.412;20.956;2023-01-27T06:01:55;94926.50;;;-2.57;100.00
22047;BME280;11187;49.412;20.956;2023-01-27T06:04:28;94918.91;;;-2.60;100.00
22047;BME280;11187;49.412;20.956;2023-01-27T06:07:22;94915.56;;;-2.60;100.00
22047;BME280;11187;49.412;20.956;2023-01-27T06:10:16;94905.53;;;-2.60;100.00
22047;BME280;11187;49.412;20.956;2023-01-27T06:13:10;94905.47;;;-2.62;100.00
22047;BME280;11187;49.412;20.956;2023-01-27T06:15:44;94911.19;;;-2.67;100.00
22047;BME280;11187;49.412;20.956;2023-01-27T06:18:33;94917.78;;;-2.69;100.00
22047;BME280;11187;49.412;20.956;2023-01-27T06:21:29;94916.22;;;-2.66;100.00
22047;BME280;11187;49.412;20.956;2023-01-27T06:24:23;94912.91;;;-2.65;100.00
22047;BME280;11187;49.412;20.956;2023-01-27T06:26:56;94915.41;;;-2.65;100.00
22047;BME280;11187;49.412;20.956;2023-01-27T06:29:43;94917.16;;;-2.62;100.00
22047;BME280;11187;49.412;20.956;2023-01-27T06:32:17;94916.34;;;-2.61;100.00
22047;BME280;11187;49.412;20.956;2023-01-27T06:35:04;94918.13;;;-2.59;100.00
22047;BME280;11187;49.412;20.956;2023-01-27T06:37:38;94913.09;;;-2.59;100.00
22047;BME280;11187;49.412;20.956;2023-01-27T06:40:26;94908.88;;;-2.60;100.00
22047;BME280;11187;49.412;20.956;2023-01-27T06:43:00;94913.13;;;-2.57;100.00
22047;BME280;11187;49.412;20.956;2023-01-27T06:45:55;94933.16;;;-2.59;100.00
22047;BME280;11187;49.412;20.956;2023-01-27T06:48:49;94928.97;;;-2.58;100.00
22047;BME280;11187;49.412;20.956;2023-01-27T06:51:43;94936.53;;;-2.57;100.00
22047;BME280;11187;49.412;20.956;2023-01-27T06:54:16;94929.91;;;-2.55;100.00
22047;BME280;11187;49.412;20.956;2023-01-27T06:57:10;94929.78;;;-2.59;100.00
22047;BME280;11187;49.412;20.956;2023-01-27T06:59:43;94930.66;;;-2.57;100.00
22047;BME280;11187;49.412;20.956;2023-01-27T07:02:37;94920.78;;;-2.53;100.00
22047;BME280;11187;49.412;20.956;2023-01-27T07:05:32;94928.34;;;-2.51;100.00
22047;BME280;11187;49.412;20.956;2023-01-27T07:08:06;94929.19;;;-2.50;100.00
22047;BME280;11187;49.412;20.956;2023-01-27T07:10:53;94930.09;;;-2.48;100.00
22047;BME280;11187;49.412;20.956;2023-01-27T07:13:26;94935.91;;;-2.49;100.00
22047;BME280;11187;49.412;20.956;2023-01-27T07:16:13;94942.63;;;-2.48;100.00
22047;BME280;11187;49.412;20.956;2023-01-27T07:18:47;94931.81;;;-2.46;100.00
22047;BME280;11187;49.412;20.956;2023-01-27T07:21:34;94930.22;;;-2.44;100.00
22047;BME280;11187;49.412;20.956;2023-01-27T07:24:08;94925.97;;;-2.46;100.00
22047;BME280;11187;49.412;20.956;2023-01-27T07:27:02;94932.66;;;-2.45;100.00
22047;BME280;11187;49.412;20.956;2023-01-27T07:29:35;94941.09;;;-2.43;100.00
22047;BME280;11187;49.412;20.956;2023-01-27T07:32:29;94938.69;;;-2.40;100.00
22047;BME280;11187;49.412;20.956;2023-01-27T07:35:03;94944.59;;;-2.38;100.00
22047;BME280;11187;49.412;20.956;2023-01-27T07:37:57;94938.69;;;-2.40;100.00
22047;BME280;11187;49.412;20.956;2023-01-27T07:40:54;94953.75;;;-2.39;100.00
22047;BME280;11187;49.412;20.956;2023-01-27T07:43:27;94948.84;;;-2.36;100.00
22047;BME280;11187;49.412;20.956;2023-01-27T07:46:21;94946.47;;;-2.31;100.00
22047;BME280;11187;49.412;20.956;2023-01-27T07:49:18;94950.63;;;-2.32;100.00
22047;BME280;11187;49.412;20.956;2023-01-27T07:52:11;94946.47;;;-2.31;100.00
22047;BME280;11187;49.412;20.956;2023-01-27T07:54:44;94941.59;;;-2.25;100.00
22047;BME280;11187;49.412;20.956;2023-01-27T07:57:34;94943.31;;;-2.24;100.00
22047;BME280;11187;49.412;20.956;2023-01-27T08:00:08;94951.81;;;-2.19;100.00
22047;BME280;11187;49.412;20.956;2023-01-27T08:03:02;94946.97;;;-2.13;100.00
22047;BME280;11187;49.412;20.956;2023-01-27T08:05:56;94950.38;;;-2.11;100.00
22047;BME280;11187;49.412;20.956;2023-01-27T08:08:29;94956.34;;;-2.05;100.00
22047;BME280;11187;49.412;20.956;2023-01-27T08:11:26;94960.66;;;-2.01;100.00
22047;BME280;11187;49.412;20.956;2023-01-27T08:13:59;94959.81;;;-2.00;100.00
22047;BME280;11187;49.412;20.956;2023-01-27T08:16:55;94957.41;;;-1.97;100.00
22047;BME280;11187;49.412;20.956;2023-01-27T08:19:52;94952.41;;;-1.96;100.00
22047;BME280;11187;49.412;20.956;2023-01-27T08:22:46;94960.94;;;-1.91;100.00
22047;BME280;11187;49.412;20.956;2023-01-27T08:25:44;94949.34;;;-1.85;100.00
22047;BME280;11187;49.412;20.956;2023-01-27T08:28:21;94957.78;;;-1.83;100.00
22047;BME280;11187;49.412;20.956;2023-01-27T08:31:16;94956.19;;;-1.80;100.00
22047;BME280;11187;49.412;20.956;2023-01-27T08:33:52;94959.50;;;-1.81;100.00
22047;BME280;11187;49.412;20.956;2023-01-27T08:36:40;94961.19;;;-1.81;100.00
22047;BME280;11187;49.412;20.956;2023-01-27T08:39:16;94972.06;;;-1.81;100.00
22047;BME280;11187;49.412;20.956;2023-01-27T08:42:03;94974.63;;;-1.79;100.00
22047;BME280;11187;49.412;20.956;2023-01-27T08:44:36;94977.91;;;-1.80;100.00
22047;BME280;11187;49.412;20.956;2023-01-27T08:47:30;94987.13;;;-1.81;100.00
22047;BME280;11187;49.412;20.956;2023-01-27T08:50:03;94983.72;;;-1.83;100.00
22047;BME280;11187;49.412;20.956;2023-01-27T08:52:57;94990.41;;;-1.83;100.00
22047;BME280;11187;49.412;20.956;2023-01-27T08:55:52;94982.88;;;-1.82;100.00
22047;BME280;11187;49.412;20.956;2023-01-27T08:58:46;94972.94;;;-1.79;100.00
22047;BME280;11187;49.412;20.956;2023-01-27T09:01:20;94969.72;;;-1.75;100.00
22047;BME280;11187;49.412;20.956;2023-01-27T09:04:07;94963.16;;;-1.70;100.00
22047;BME280;11187;49.412;20.956;2023-01-27T09:06:40;94963.09;;;-1.71;100.00
22047;BME280;11187;49.412;20.956;2023-01-27T09:09:28;94957.31;;;-1.69;100.00
22047;BME280;11187;49.412;20.956;2023-01-27T09:12:01;94946.31;;;-1.74;100.00
22047;BME280;11187;49.412;20.956;2023-01-27T09:14:48;94944.75;;;-1.69;100.00
22047;BME280;11187;49.412;20.956;2023-01-27T09:17:21;94938.94;;;-1.67;100.00
22047;BME280;11187;49.412;20.956;2023-01-27T09:20:08;94928.91;;;-1.67;100.00
22047;BME280;11187;49.412;20.956;2023-01-27T09:22:42;94935.66;;;-1.65;100.00
22047;BME280;11187;49.412;20.956;2023-01-27T09:25:30;94934.06;;;-1.61;100.00
22047;BME280;11187;49.412;20.956;2023-01-27T09:28:03;94940.06;;;-1.56;100.00
22047;BME280;11187;49.412;20.956;2023-01-27T09:31:02;94946.00;;;-1.53;100.00
22047;BME280;11187;49.412;20.956;2023-01-27T09:33:57;94949.34;;;-1.54;100.00
22047;BME280;11187;49.412;20.956;2023-01-27T09:36:32;94946.81;;;-1.54;100.00
22047;BME280;11187;49.412;20.956;2023-01-27T09:39:31;94947.63;;;-1.55;100.00
22047;BME280;11187;49.412;20.956;2023-01-27T09:55:20;94942.34;;;-1.65;100.00
22047;BME280;11187;49.412;20.956;2023-01-27T09:58:09;94942.13;;;-1.75;100.00
22047;BME280;11187;49.412;20.956;2023-01-27T10:26:38;94966.19;;;-1.81;100.00
22047;BME280;11187;49.412;20.956;2023-01-27T10:29:20;94960.22;;;-1.85;100.00
22047;BME280;11187;49.412;20.956;2023-01-27T10:32:26;94966.03;;;-1.87;100.00
22047;BME280;11187;49.412;20.956;2023-01-27T10:38:10;94975.28;;;-1.85;100.00
22047;BME280;11187;49.412;20.956;2023-01-27T10:52:55;94960.22;;;-1.85;100.00
22047;BME280;11187;49.412;20.956;2023-01-27T10:55:51;94954.53;;;-1.79;100.00
22047;BME280;11187;49.412;20.956;2023-01-27T11:02:20;94946.34;;;-1.72;100.00
22047;BME280;11187;49.412;20.956;2023-01-27T11:04:59;94941.28;;;-1.74;100.00
22047;BME280;11187;49.412;20.956;2023-01-27T11:07:51;94938.72;;;-1.75;100.00
22047;BME280;11187;49.412;20.956;2023-01-27T11:10:50;94927.91;;;-1.74;100.00
22047;BME280;11187;49.412;20.956;2023-01-27T11:14:18;94921.28;;;-1.71;100.00
22047;BME280;11187;49.412;20.956;2023-01-27T11:17:24;94929.78;;;-1.65;100.00
22047;BME280;11187;49.412;20.956;2023-01-27T11:20:27;94920.56;;;-1.66;100.00
22047;BME280;11187;49.412;20.956;2023-01-27T11:23:30;94923.94;;;-1.64;100.00
22047;BME280;11187;49.412;20.956;2023-01-27T11:26:42;94930.69;;;-1.63;100.00
22047;BME280;11187;49.412;20.956;2023-01-27T11:35:12;94912.25;;;-1.64;100.00
22047;BME280;11187;49.412;20.956;2023-01-27T11:37:59;94924.78;;;-1.64;100.00
22047;BME280;11187;49.412;20.956;2023-01-27T11:40:41;94907.22;;;-1.64;100.00
22047;BME280;11187;49.412;20.956;2023-01-27T11:43:30;94918.13;;;-1.63;100.00
22047;BME280;11187;49.412;20.956;2023-01-27T11:46:06;94921.50;;;-1.63;100.00
22047;BME280;11187;49.412;20.956;2023-01-27T11:49:01;94909.84;;;-1.59;100.00
22047;BME280;11187;49.412;20.956;2023-01-27T11:52:19;94916.59;;;-1.57;100.00
22047;BME280;11187;49.412;20.956;2023-01-27T11:58:19;94920.78;;;-1.57;100.00
22047;BME280;11187;49.412;20.956;2023-01-27T12:01:23;94919.81;;;-1.62;100.00
22047;BME280;11187;49.412;20.956;2023-01-27T12:06:44;94910.59;;;-1.63;100.00
22047;BME280;11187;49.412;20.956;2023-01-27T12:09:36;94905.53;;;-1.65;100.00
22047;BME280;11187;49.412;20.956;2023-01-27T12:12:30;94902.97;;;-1.66;100.00
22047;BME280;11187;49.412;20.956;2023-01-27T12:15:14;94909.66;;;-1.67;100.00
22047;BME280;11187;49.412;20.956;2023-01-27T12:18:12;94912.19;;;-1.67;100.00
22047;BME280;11187;49.412;20.956;2023-01-27T12:21:02;94899.53;;;-1.72;100.00
22047;BME280;11187;49.412;20.956;2023-01-27T12:23:56;94907.03;;;-1.72;100.00
22047;BME280;11187;49.412;20.956;2023-01-27T12:26:51;94914.41;;;-1.78;100.00
22047;BME280;11187;49.412;20.956;2023-01-27T12:29:57;94920.38;;;-1.74;100.00
22047;BME280;11187;49.412;20.956;2023-01-27T12:32:39;94929.34;;;-1.82;100.00
22047;BME280;11187;49.412;20.956;2023-01-27T12:35:34;94931.91;;;-1.81;100.00
22047;BME280;11187;49.412;20.956;2023-01-27T12:38:12;94931.09;;;-1.80;100.00
22047;BME280;11187;49.412;20.956;2023-01-27T12:41:10;94930.28;;;-1.79;100.00
22047;BME280;11187;49.412;20.956;2023-01-27T12:43:51;94916.91;;;-1.78;100.00
22047;BME280;11187;49.412;20.956;2023-01-27T12:46:41;94920.28;;;-1.77;100.00
22047;BME280;11187;49.412;20.956;2023-01-27T12:49:35;94908.56;;;-1.78;100.00
22047;BME280;11187;49.412;20.956;2023-01-27T12:52:32;94906.09;;;-1.77;100.00
22047;BME280;11187;49.412;20.956;2023-01-27T12:55:27;94910.22;;;-1.79;100.00
22047;BME280;11187;49.412;20.956;2023-01-27T12:58:55;94911.78;;;-1.82;100.00
22047;BME280;11187;49.412;20.956;2023-01-27T13:01:32;94905.09;;;-1.83;100.00
22047;BME280;11187;49.412;20.956;2023-01-27T13:04:23;94903.41;;;-1.83;100.00
22047;BME280;11187;49.412;20.956;2023-01-27T13:07:15;94905.84;;;-1.86;100.00
22047;BME280;11187;49.412;20.956;2023-01-27T13:10:19;94905.03;;;-1.85;100.00
22047;BME280;11187;49.412;20.956;2023-01-27T13:12:57;94906.75;;;-1.82;100.00
22047;BME280;11187;49.412;20.956;2023-01-27T13:16:28;94921.09;;;-1.78;100.00
22047;BME280;11187;49.412;20.956;2023-01-27T13:19:16;94918.53;;;-1.80;100.00
22047;BME280;11187;49.412;20.956;2023-01-27T13:22:15;94918.59;;;-1.78;100.00
22047;BME280;11187;49.412;20.956;2023-01-27T13:25:16;94921.09;;;-1.78;100.00
22047;BME280;11187;49.412;20.956;2023-01-27T13:27:54;94919.31;;;-1.82;100.00
22047;BME280;11187;49.412;20.956;2023-01-27T13:30:47;94922.66;;;-1.82;100.00
22047;BME280;11187;49.412;20.956;2023-01-27T13:33:53;94927.78;;;-1.79;100.00
22047;BME280;11187;49.412;20.956;2023-01-27T13:39:55;94932.88;;;-1.76;100.00
22047;BME280;11187;49.412;20.956;2023-01-27T13:42:37;94936.19;;;-1.77;100.00
22047;BME280;11187;49.412;20.956;2023-01-27T13:48:27;94934.53;;;-1.76;100.00
22047;BME280;11187;49.412;20.956;2023-01-27T13:51:20;94939.56;;;-1.76;100.00
22047;BME280;11187;49.412;20.956;2023-01-27T13:54:03;94942.00;;;-1.79;100.00
22047;BME280;11187;49.412;20.956;2023-01-27T14:00:37;94961.94;;;-1.84;100.00
22047;BME280;11187;49.412;20.956;2023-01-27T14:03:34;94957.78;;;-1.83;100.00
22047;BME280;11187;49.412;20.956;2023-01-27T14:10:16;94947.50;;;-1.93;100.00
22047;BME280;11187;49.412;20.956;2023-01-27T14:16:19;94950.72;;;-1.97;100.00
22047;BME280;11187;49.412;20.956;2023-01-27T14:25:26;94956.53;;;-1.98;100.00
22047;BME280;11187;49.412;20.956;2023-01-27T14:28:30;94958.91;;;-2.04;100.00
22047;BME280;11187;49.412;20.956;2023-01-27T14:31:12;94955.53;;;-2.04;100.00
22047;BME280;11187;49.412;20.956;2023-01-27T14:40:19;94955.63;;;-2.01;100.00
22047;BME280;11187;49.412;20.956;2023-01-27T14:43:09;94959.75;;;-2.03;100.00
22047;BME280;11187;49.412;20.956;2023-01-27T14:55:26;94940.28;;;-2.12;100.00
22047;BME280;11187;49.412;20.956;2023-01-27T15:01:25;94949.47;;;-2.13;100.00
22047;BME280;11187;49.412;20.956;2023-01-27T15:18:59;94945.13;;;-2.18;100.00
22047;BME280;11187;49.412;20.956;2023-01-27T15:27:12;94961.06;;;-2.16;100.00
22047;BME280;11187;49.412;20.956;2023-01-27T15:29:45;94964.34;;;-2.19;100.00
22047;BME280;11187;49.412;20.956;2023-01-27T15:32:36;94977.69;;;-2.20;100.00
22047;BME280;11187;49.412;20.956;2023-01-27T15:35:33;94980.34;;;-2.15;100.00
22047;BME280;11187;49.412;20.956;2023-01-27T15:38:31;94979.50;;;-2.16;100.00
22047;BME280;11187;49.412;20.956;2023-01-27T15:41:26;94971.19;;;-2.13;100.00
22047;BME280;11187;49.412;20.956;2023-01-27T15:47:22;94982.91;;;-2.12;100.00
22047;BME280;11187;49.412;20.956;2023-01-27T15:50:25;94982.97;;;-2.11;100.00
22047;BME280;11187;49.412;20.956;2023-01-27T15:53:14;94987.16;;;-2.11;100.00
22047;BME280;11187;49.412;20.956;2023-01-27T15:56:03;94994.63;;;-2.13;100.00
22047;BME280;11187;49.412;20.956;2023-01-27T15:58:41;94982.91;;;-2.12;100.00
22047;BME280;11187;49.412;20.956;2023-01-27T16:01:33;94990.50;;;-2.11;100.00
22047;BME280;11187;49.412;20.956;2023-01-27T16:04:44;94999.69;;;-2.10;100.00
22047;BME280;11187;49.412;20.956;2023-01-27T16:07:41;94999.69;;;-2.11;100.00
22047;BME280;11187;49.412;20.956;2023-01-27T16:10:22;95009.66;;;-2.13;100.00
22047;BME280;11187;49.412;20.956;2023-01-27T16:13:28;95002.09;;;-2.14;100.00
22047;BME280;11187;49.412;20.956;2023-01-27T16:16:28;95009.59;;;-2.16;100.00
22047;BME280;11187;49.412;20.956;2023-01-27T16:22:04;95014.59;;;-2.16;100.00
22047;BME280;11187;49.412;20.956;2023-01-27T16:24:43;95011.22;;;-2.16;100.00
22047;BME280;11187;49.412;20.956;2023-01-27T16:28:04;95004.66;;;-2.13;100.00
22047;BME280;11187;49.412;20.956;2023-01-27T16:33:56;95010.38;;;-2.17;100.00
22047;BME280;11187;49.412;20.956;2023-01-27T16:37:31;95016.09;;;-2.21;100.00
22047;BME280;11187;49.412;20.956;2023-01-27T16:40:05;95011.00;;;-2.24;100.00
22047;BME280;11187;49.412;20.956;2023-01-27T16:43:07;95024.34;;;-2.25;100.00
22047;BME280;11187;49.412;20.956;2023-01-27T16:45:49;95026.84;;;-2.25;100.00
22047;BME280;11187;49.412;20.956;2023-01-27T16:48:45;95025.16;;;-2.26;100.00
22047;BME280;11187;49.412;20.956;2023-01-27T16:51:42;95034.47;;;-2.22;100.00
22047;BME280;11187;49.412;20.956;2023-01-27T16:54:25;95028.63;;;-2.22;100.00
22047;BME280;11187;49.412;20.956;2023-01-27T16:57:35;95036.16;;;-2.22;100.00